sensor_id;sensor_type;location;lat;lon;timestamp;pressure;altitude;pressure_sealevel;temperature;humidity
70458;BME280;57919;56.194;95.716;2023-09-08T00:05:03;98914.34;;;10.58;79.55
70458;BME280;57919;56.194;95.716;2023-09-08T00:15:06;98909.66;;;10.60;79.79
70458;BME280;57919;56.194;95.716;2023-09-08T00:25:09;98916.47;;;10.74;79.92
70458;BME280;57919;56.194;95.716;2023-09-08T00:35:11;98921.16;;;10.81;79.66
70458;BME280;57919;56.194;95.716;2023-09-08T00:45:14;98921.28;;;10.99;79.55
70458;BME280;57919;56.194;95.716;2023-09-08T00:55:17;98926.41;;;10.92;78.82
70458;BME280;57919;56.194;95.716;2023-09-08T01:05:20;98926.69;;;10.99;78.71
70458;BME280;57919;56.194;95.716;2023-09-08T01:15:23;98935.78;;;11.17;78.33
70458;BME280;57919;56.194;95.716;2023-09-08T01:25:25;98932.19;;;11.26;77.60
70458;BME280;57919;56.194;95.716;2023-09-08T01:35:28;98932.38;;;11.52;76.69
70458;BME280;57919;56.194;95.716;2023-09-08T01:45:31;98934.50;;;11.95;75.06
70458;BME280;57919;56.194;95.716;2023-09-08T01:55:33;98943.22;;;12.17;73.07
70458;BME280;57919;56.194;95.716;2023-09-08T02:05:35;98944.97;;;12.53;72.46
70458;BME280;57919;56.194;95.716;2023-09-08T02:15:40;98956.88;;;13.57;68.91
70458;BME280;57919;56.194;95.716;2023-09-08T02:25:42;98965.91;;;12.97;68.39
70458;BME280;57919;56.194;95.716;2023-09-08T02:35:44;98974.72;;;12.27;70.16
70458;BME280;57919;56.194;95.716;2023-09-08T02:45:47;98972.31;;;12.24;70.58
70458;BME280;57919;56.194;95.716;2023-09-08T02:55:49;98989.72;;;12.22;70.33
70458;BME280;57919;56.194;95.716;2023-09-08T03:05:53;98989.31;;;12.17;70.08
70458;BME280;57919;56.194;95.716;2023-09-08T03:16:02;98980.53;;;12.33;69.51
70458;BME280;57919;56.194;95.716;2023-09-08T03:26:05;98986.19;;;12.39;69.50
70458;BME280;57919;56.194;95.716;2023-09-08T03:36:08;98983.41;;;12.31;69.67
70458;BME280;57919;56.194;95.716;2023-09-08T03:46:10;98981.16;;;12.44;68.96
70458;BME280;57919;56.194;95.716;2023-09-08T03:56:12;98981.56;;;12.49;69.09
70458;BME280;57919;56.194;95.716;2023-09-08T04:06:14;98989.66;;;12.77;69.95
70458;BME280;57919;56.194;95.716;2023-09-08T04:16:16;98979.09;;;12.74;71.76
70458;BME280;57919;56.194;95.716;2023-09-08T04:26:18;98979.78;;;12.58;72.43
70458;BME280;57919;56.194;95.716;2023-09-08T04:36:20;98982.91;;;12.18;73.50
70458;BME280;57919;56.194;95.716;2023-09-08T04:46:22;98987.72;;;11.96;74.71
70458;BME280;57919;56.194;95.716;2023-09-08T04:56:24;98985.59;;;11.90;75.72
70458;BME280;57919;56.194;95.716;2023-09-08T05:06:26;98987.06;;;12.40;76.21
70458;BME280;57919;56.194;95.716;2023-09-08T05:16:28;98980.19;;;12.81;76.81
70458;BME280;57919;56.194;95.716;2023-09-08T05:26:47;98984.78;;;13.42;76.08
70458;BME280;57919;56.194;95.716;2023-09-08T05:36:50;98988.41;;;13.76;74.46
70458;BME280;57919;56.194;95.716;2023-09-08T05:46:52;98977.22;;;14.21;72.42
70458;BME280;57919;56.194;95.716;2023-09-08T05:56:54;98971.03;;;13.69;73.32
70458;BME280;57919;56.194;95.716;2023-09-08T06:06:56;98966.13;;;13.73;72.79
70458;BME280;57919;56.194;95.716;2023-09-08T06:16:58;98959.72;;;14.24;72.15
70458;BME280;57919;56.194;95.716;2023-09-08T06:27:01;98972.75;;;14.46;70.63
70458;BME280;57919;56.194;95.716;2023-09-08T06:37:03;98974.53;;;14.80;67.51
70458;BME280;57919;56.194;95.716;2023-09-08T06:47:05;98965.94;;;14.42;68.23
70458;BME280;57919;56.194;95.716;2023-09-08T06:57:09;98973.78;;;14.45;67.41
70458;BME280;57919;56.194;95.716;2023-09-08T07:07:11;98961.19;;;14.44;67.50
70458;BME280;57919;56.194;95.716;2023-09-08T07:17:14;98952.38;;;15.40;65.07
70458;BME280;57919;56.194;95.716;2023-09-08T07:27:16;98949.44;;;15.82;61.98
70458;BME280;57919;56.194;95.716;2023-09-08T07:37:19;98952.53;;;15.46;61.93
70458;BME280;57919;56.194;95.716;2023-09-08T07:47:22;98955.47;;;15.29;61.31
70458;BME280;57919;56.194;95.716;2023-09-08T07:57:24;98949.84;;;15.22;60.88
70458;BME280;57919;56.194;95.716;2023-09-08T08:07:26;98950.72;;;15.06;62.61
70458;BME280;57919;56.194;95.716;2023-09-08T08:17:28;98954.28;;;15.23;62.68
70458;BME280;57919;56.194;95.716;2023-09-08T08:27:31;98956.09;;;15.55;61.47
70458;BME280;57919;56.194;95.716;2023-09-08T08:37:33;98948.44;;;16.14;59.66
70458;BME280;57919;56.194;95.716;2023-09-08T08:47:35;98938.63;;;16.36;58.79
70458;BME280;57919;56.194;95.716;2023-09-08T08:57:38;98945.38;;;16.79;57.12
70458;BME280;57919;56.194;95.716;2023-09-08T09:07:43;98953.88;;;17.07;54.42
70458;BME280;57919;56.194;95.716;2023-09-08T09:18:02;98940.09;;;16.77;55.04
70458;BME280;57919;56.194;95.716;2023-09-08T09:28:05;98942.72;;;16.32;56.06
70458;BME280;57919;56.194;95.716;2023-09-08T09:38:07;98944.31;;;15.79;58.32
70458;BME280;57919;56.194;95.716;2023-09-08T09:48:12;98949.78;;;15.79;58.74
70458;BME280;57919;56.194;95.716;2023-09-08T09:58:14;98938.91;;;15.55;59.06
70458;BME280;57919;56.194;95.716;2023-09-08T10:08:17;98939.09;;;15.37;58.72
70458;BME280;57919;56.194;95.716;2023-09-08T10:18:20;98938.94;;;15.30;58.90
70458;BME280;57919;56.194;95.716;2023-09-08T10:28:25;98945.59;;;14.95;60.49
70458;BME280;57919;56.194;95.716;2023-09-08T10:38:32;98937.59;;;15.18;60.82
70458;BME280;57919;56.194;95.716;2023-09-08T10:48:44;98956.50;;;15.19;61.17
70458;BME280;57919;56.194;95.716;2023-09-08T10:58:51;98955.63;;;14.95;61.85
70458;BME280;57919;56.194;95.716;2023-09-08T11:08:53;98955.31;;;15.14;61.73
70458;BME280;57919;56.194;95.716;2023-09-08T11:18:57;98953.59;;;14.97;62.21
70458;BME280;57919;56.194;95.716;2023-09-08T11:28:59;98953.06;;;14.69;62.92
70458;BME280;57919;56.194;95.716;2023-09-08T11:39:04;98950.97;;;14.46;63.49
70458;BME280;57919;56.194;95.716;2023-09-08T11:49:07;98949.00;;;14.22;64.56
70458;BME280;57919;56.194;95.716;2023-09-08T11:59:09;98945.22;;;13.73;65.14
70458;BME280;57919;56.194;95.716;2023-09-08T12:09:12;98964.66;;;13.52;65.32
70458;BME280;57919;56.194;95.716;2023-09-08T12:19:30;98966.97;;;13.21;65.52
70458;BME280;57919;56.194;95.716;2023-09-08T12:29:33;98984.91;;;12.79;66.11
70458;BME280;57919;56.194;95.716;2023-09-08T12:39:35;98987.28;;;12.46;66.89
70458;BME280;57919;56.194;95.716;2023-09-08T12:49:37;99001.31;;;12.14;67.64
70458;BME280;57919;56.194;95.716;2023-09-08T12:59:40;98993.53;;;12.02;68.14
70458;BME280;57919;56.194;95.716;2023-09-08T13:09:42;99000.56;;;11.94;68.24
70458;BME280;57919;56.194;95.716;2023-09-08T13:19:44;99010.91;;;11.62;69.18
70458;BME280;57919;56.194;95.716;2023-09-08T13:29:46;99012.25;;;11.39;69.74
70458;BME280;57919;56.194;95.716;2023-09-08T13:39:48;99019.13;;;11.33;71.38
70458;BME280;57919;56.194;95.716;2023-09-08T13:49:50;99021.66;;;11.44;72.28
70458;BME280;57919;56.194;95.716;2023-09-08T13:59:52;99018.47;;;11.68;70.25
70458;BME280;57919;56.194;95.716;2023-09-08T14:09:55;99000.91;;;11.72;70.02
70458;BME280;57919;56.194;95.716;2023-09-08T14:19:58;98998.19;;;11.82;70.11
70458;BME280;57919;56.194;95.716;2023-09-08T14:30:00;99011.31;;;11.86;70.14
70458;BME280;57919;56.194;95.716;2023-09-08T14:40:05;99002.31;;;11.76;70.45
70458;BME280;57919;56.194;95.716;2023-09-08T14:50:08;99005.69;;;11.51;70.82
70458;BME280;57919;56.194;95.716;2023-09-08T15:00:11;99012.25;;;11.39;71.01
70458;BME280;57919;56.194;95.716;2023-09-08T15:10:13;99007.59;;;11.21;71.19
70458;BME280;57919;56.194;95.716;2023-09-08T15:20:15;99010.31;;;11.02;71.54
70458;BME280;57919;56.194;95.716;2023-09-08T15:30:18;99019.69;;;10.69;72.15
70458;BME280;57919;56.194;95.716;2023-09-08T15:40:20;99009.13;;;10.37;72.82
70458;BME280;57919;56.194;95.716;2023-09-08T15:50:21;99012.16;;;10.13;72.93
70458;BME280;57919;56.194;95.716;2023-09-08T16:00:24;99007.59;;;9.74;73.93
70458;BME280;57919;56.194;95.716;2023-09-08T16:10:26;99003.75;;;9.46;74.39
70458;BME280;57919;56.194;95.716;2023-09-08T16:20:29;99003.78;;;9.25;75.08
70458;BME280;57919;56.194;95.716;2023-09-08T16:30:31;99002.19;;;9.22;75.00
70458;BME280;57919;56.194;95.716;2023-09-08T16:40:33;99007.84;;;9.19;75.50
70458;BME280;57919;56.194;95.716;2023-09-08T16:50:35;98992.91;;;9.15;75.55
70458;BME280;57919;56.194;95.716;2023-09-08T17:00:37;98992.19;;;9.13;76.30
70458;BME280;57919;56.194;95.716;2023-09-08T17:10:39;98984.88;;;9.04;76.61
70458;BME280;57919;56.194;95.716;2023-09-08T17:20:41;98979.09;;;9.09;76.48
70458;BME280;57919;56.194;95.716;2023-09-08T17:30:43;98984.16;;;8.81;78.24
70458;BME280;57919;56.194;95.716;2023-09-08T17:40:45;98974.78;;;8.64;79.28
70458;BME280;57919;56.194;95.716;2023-09-08T17:50:47;98964.66;;;8.57;79.27
70458;BME280;57919;56.194;95.716;2023-09-08T18:00:49;98966.28;;;8.48;79.50
70458;BME280;57919;56.194;95.716;2023-09-08T18:10:59;98948.69;;;8.33;79.70
70458;BME280;57919;56.194;95.716;2023-09-08T18:21:01;98966.31;;;8.26;80.03
70458;BME280;57919;56.194;95.716;2023-09-08T18:31:03;98959.00;;;8.17;80.49
70458;BME280;57919;56.194;95.716;2023-09-08T18:41:05;98958.41;;;8.02;81.19
70458;BME280;57919;56.194;95.716;2023-09-08T18:51:07;98948.03;;;7.97;81.30
70458;BME280;57919;56.194;95.716;2023-09-08T19:01:09;98945.72;;;7.82;82.03
70458;BME280;57919;56.194;95.716;2023-09-08T19:11:11;98943.78;;;7.61;82.21
70458;BME280;57919;56.194;95.716;2023-09-08T19:21:13;98940.59;;;7.78;81.65
70458;BME280;57919;56.194;95.716;2023-09-08T19:31:16;98926.03;;;7.81;80.88
70458;BME280;57919;56.194;95.716;2023-09-08T19:41:18;98935.81;;;7.71;82.15
70458;BME280;57919;56.194;95.716;2023-09-08T19:51:22;98933.00;;;7.84;81.78
70458;BME280;57919;56.194;95.716;2023-09-08T20:01:24;98926.25;;;7.89;81.64
70458;BME280;57919;56.194;95.716;2023-09-08T20:11:26;98927.00;;;7.80;81.81
70458;BME280;57919;56.194;95.716;2023-09-08T20:21:29;98918.78;;;7.82;82.28
70458;BME280;57919;56.194;95.716;2023-09-08T20:31:31;98922.31;;;7.93;82.25
70458;BME280;57919;56.194;95.716;2023-09-08T20:41:33;98912.69;;;7.80;82.64
70458;BME280;57919;56.194;95.716;2023-09-08T20:51:34;98919.41;;;7.74;82.95
70458;BME280;57919;56.194;95.716;2023-09-08T21:01:36;98912.56;;;7.81;83.09
70458;BME280;57919;56.194;95.716;2023-09-08T21:11:38;98901.53;;;7.84;83.65
70458;BME280;57919;56.194;95.716;2023-09-08T21:21:40;98904.72;;;7.78;83.60
70458;BME280;57919;56.194;95.716;2023-09-08T21:31:42;98902.03;;;7.78;83.72
70458;BME280;57919;56.194;95.716;2023-09-08T21:41:45;98902.53;;;7.72;83.88
70458;BME280;57919;56.194;95.716;2023-09-08T21:51:47;98908.06;;;7.59;84.10
70458;BME280;57919;56.194;95.716;2023-09-08T22:01:51;98901.81;;;7.59;83.78
70458;BME280;57919;56.194;95.716;2023-09-08T22:11:53;98907.47;;;7.44;84.43
70458;BME280;57919;56.194;95.716;2023-09-08T22:21:55;98908.94;;;7.37;84.43
70458;BME280;57919;56.194;95.716;2023-09-08T22:31:57;98892.31;;;7.32;84.48
70458;BME280;57919;56.194;95.716;2023-09-08T22:41:59;98902.56;;;7.27;84.87
70458;BME280;57919;56.194;95.716;2023-09-08T22:52:01;98900.00;;;7.37;84.34
70458;BME280;57919;56.194;95.716;2023-09-08T23:02:04;98919.09;;;7.34;85.16
70458;BME280;57919;56.194;95.716;2023-09-08T23:12:07;98923.50;;;7.35;84.76
70458;BME280;57919;56.194;95.716;2023-09-08T23:22:09;98931.44;;;7.48;85.04
70458;BME280;57919;56.194;95.716;2023-09-08T23:32:11;98934.72;;;7.62;84.97
70458;BME280;57919;56.194;95.716;2023-09-08T23:42:13;98953.91;;;7.91;84.78
70458;BME280;57919;56.194;95.716;2023-09-08T23:52:15;98953.59;;;8.17;84.41
